sensor_id;sensor_type;location;lat;lon;timestamp;temperature;humidity
45233;DHT22;30969;51.052;17.056;2023-07-13T00:03:35;26.60;55.50
45233;DHT22;30969;51.052;17.056;2023-07-13T00:08:38;26.50;55.70
45233;DHT22;30969;51.052;17.056;2023-07-13T00:13:42;26.50;55.90
45233;DHT22;30969;51.052;17.056;2023-07-13T00:18:47;26.50;55.50
45233;DHT22;30969;51.052;17.056;2023-07-13T00:23:52;26.40;55.50
45233;DHT22;30969;51.052;17.056;2023-07-13T00:28:56;26.20;55.50
45233;DHT22;30969;51.052;17.056;2023-07-13T00:34:00;26.20;55.80
45233;DHT22;30969;51.052;17.056;2023-07-13T00:39:04;26.20;56.10
45233;DHT22;30969;51.052;17.056;2023-07-13T00:44:09;26.20;56.00
45233;DHT22;30969;51.052;17.056;2023-07-13T00:49:18;26.10;55.80
45233;DHT22;30969;51.052;17.056;2023-07-13T00:54:23;25.90;56.00
45233;DHT22;30969;51.052;17.056;2023-07-13T00:59:27;25.70;56.60
45233;DHT22;30969;51.052;17.056;2023-07-13T01:04:32;25.40;56.90
45233;DHT22;30969;51.052;17.056;2023-07-13T01:09:36;25.20;56.90
45233;DHT22;30969;51.052;17.056;2023-07-13T01:14:39;25.20;56.90
45233;DHT22;30969;51.052;17.056;2023-07-13T01:19:44;25.10;56.80
45233;DHT22;30969;51.052;17.056;2023-07-13T01:24:50;25.10;56.50
45233;DHT22;30969;51.052;17.056;2023-07-13T01:29:53;25.00;56.40
45233;DHT22;30969;51.052;17.056;2023-07-13T01:35:05;25.00;56.80
45233;DHT22;30969;51.052;17.056;2023-07-13T01:40:10;24.80;57.20
45233;DHT22;30969;51.052;17.056;2023-07-13T01:45:14;24.70;57.20
45233;DHT22;30969;51.052;17.056;2023-07-13T01:50:17;24.70;57.00
45233;DHT22;30969;51.052;17.056;2023-07-13T01:55:22;24.70;57.20
45233;DHT22;30969;51.052;17.056;2023-07-13T02:00:25;24.60;57.30
45233;DHT22;30969;51.052;17.056;2023-07-13T02:05:29;24.60;57.20
45233;DHT22;30969;51.052;17.056;2023-07-13T02:10:33;24.60;57.10
45233;DHT22;30969;51.052;17.056;2023-07-13T02:15:38;24.50;56.90
45233;DHT22;30969;51.052;17.056;2023-07-13T02:20:41;24.50;56.80
45233;DHT22;30969;51.052;17.056;2023-07-13T02:25:46;24.50;56.50
45233;DHT22;30969;51.052;17.056;2023-07-13T02:30:50;24.40;56.40
45233;DHT22;30969;51.052;17.056;2023-07-13T02:35:53;24.30;56.50
45233;DHT22;30969;51.052;17.056;2023-07-13T02:40:59;24.30;56.70
45233;DHT22;30969;51.052;17.056;2023-07-13T02:46:02;24.30;56.60
45233;DHT22;30969;51.052;17.056;2023-07-13T02:51:10;24.20;56.50
45233;DHT22;30969;51.052;17.056;2023-07-13T02:56:15;24.20;56.50
45233;DHT22;30969;51.052;17.056;2023-07-13T03:01:19;24.10;56.30
45233;DHT22;30969;51.052;17.056;2023-07-13T03:06:23;24.10;56.30
45233;DHT22;30969;51.052;17.056;2023-07-13T03:11:28;24.10;56.30
45233;DHT22;30969;51.052;17.056;2023-07-13T03:16:31;24.10;56.40
45233;DHT22;30969;51.052;17.056;2023-07-13T03:21:35;24.00;56.80
45233;DHT22;30969;51.052;17.056;2023-07-13T03:26:40;24.00;56.80
45233;DHT22;30969;51.052;17.056;2023-07-13T03:31:43;24.00;56.80
45233;DHT22;30969;51.052;17.056;2023-07-13T03:36:47;24.00;56.90
45233;DHT22;30969;51.052;17.056;2023-07-13T03:41:51;24.10;56.70
45233;DHT22;30969;51.052;17.056;2023-07-13T03:46:55;24.10;56.20
45233;DHT22;30969;51.052;17.056;2023-07-13T03:51:58;24.10;55.90
45233;DHT22;30969;51.052;17.056;2023-07-13T03:57:03;24.20;55.80
45233;DHT22;30969;51.052;17.056;2023-07-13T04:02:07;24.20;55.70
45233;DHT22;30969;51.052;17.056;2023-07-13T04:07:11;24.20;55.60
45233;DHT22;30969;51.052;17.056;2023-07-13T04:12:15;24.30;55.40
45233;DHT22;30969;51.052;17.056;2023-07-13T04:17:19;24.30;55.10
45233;DHT22;30969;51.052;17.056;2023-07-13T04:22:22;24.30;55.10
45233;DHT22;30969;51.052;17.056;2023-07-13T04:27:27;24.30;55.20
45233;DHT22;30969;51.052;17.056;2023-07-13T04:32:31;24.30;55.20
45233;DHT22;30969;51.052;17.056;2023-07-13T04:37:35;24.20;56.40
45233;DHT22;30969;51.052;17.056;2023-07-13T04:42:40;24.10;56.50
45233;DHT22;30969;51.052;17.056;2023-07-13T04:47:43;23.80;56.60
45233;DHT22;30969;51.052;17.056;2023-07-13T04:52:47;23.40;58.50
45233;DHT22;30969;51.052;17.056;2023-07-13T04:57:52;23.00;59.50
45233;DHT22;30969;51.052;17.056;2023-07-13T05:02:56;22.60;60.30
45233;DHT22;30969;51.052;17.056;2023-07-13T05:08:00;22.30;61.30
45233;DHT22;30969;51.052;17.056;2023-07-13T05:13:05;22.00;61.90
45233;DHT22;30969;51.052;17.056;2023-07-13T05:18:08;21.80;62.30
45233;DHT22;30969;51.052;17.056;2023-07-13T05:23:11;21.80;62.40
45233;DHT22;30969;51.052;17.056;2023-07-13T05:28:16;21.60;62.50
45233;DHT22;30969;51.052;17.056;2023-07-13T05:33:20;21.60;62.80
45233;DHT22;30969;51.052;17.056;2023-07-13T05:38:23;21.60;62.80
45233;DHT22;30969;51.052;17.056;2023-07-13T05:43:28;21.50;62.40
45233;DHT22;30969;51.052;17.056;2023-07-13T05:48:31;21.50;62.20
45233;DHT22;30969;51.052;17.056;2023-07-13T05:53:35;21.50;62.20
45233;DHT22;30969;51.052;17.056;2023-07-13T05:58:40;21.50;62.40
45233;DHT22;30969;51.052;17.056;2023-07-13T06:03:44;21.50;62.20
45233;DHT22;30969;51.052;17.056;2023-07-13T06:08:47;21.50;61.80
45233;DHT22;30969;51.052;17.056;2023-07-13T06:13:52;21.60;61.80
45233;DHT22;30969;51.052;17.056;2023-07-13T06:18:55;21.60;62.20
45233;DHT22;30969;51.052;17.056;2023-07-13T06:23:58;21.60;62.20
45233;DHT22;30969;51.052;17.056;2023-07-13T06:29:03;21.70;61.80
45233;DHT22;30969;51.052;17.056;2023-07-13T06:34:07;21.70;61.60
45233;DHT22;30969;51.052;17.056;2023-07-13T06:39:10;21.80;61.60
45233;DHT22;30969;51.052;17.056;2023-07-13T06:44:15;21.90;61.60
45233;DHT22;30969;51.052;17.056;2023-07-13T06:49:19;22.00;61.60
45233;DHT22;30969;51.052;17.056;2023-07-13T06:54:22;22.00;61.60
45233;DHT22;30969;51.052;17.056;2023-07-13T06:59:27;21.90;61.60
45233;DHT22;30969;51.052;17.056;2023-07-13T07:04:30;21.90;61.70
45233;DHT22;30969;51.052;17.056;2023-07-13T07:09:33;21.80;62.30
45233;DHT22;30969;51.052;17.056;2023-07-13T07:14:38;21.80;62.60
45233;DHT22;30969;51.052;17.056;2023-07-13T07:19:41;21.80;63.00
45233;DHT22;30969;51.052;17.056;2023-07-13T07:24:45;21.70;63.40
45233;DHT22;30969;51.052;17.056;2023-07-13T07:29:50;21.70;63.60
45233;DHT22;30969;51.052;17.056;2023-07-13T07:35:06;21.70;63.30
45233;DHT22;30969;51.052;17.056;2023-07-13T07:40:09;21.70;62.90
45233;DHT22;30969;51.052;17.056;2023-07-13T07:45:17;21.70;62.50
45233;DHT22;30969;51.052;17.056;2023-07-13T07:50:21;21.80;62.70
45233;DHT22;30969;51.052;17.056;2023-07-13T07:55:25;21.70;62.90
45233;DHT22;30969;51.052;17.056;2023-07-13T08:00:33;21.70;63.40
45233;DHT22;30969;51.052;17.056;2023-07-13T08:05:57;21.80;63.60
45233;DHT22;30969;51.052;17.056;2023-07-13T08:11:14;21.90;63.00
45233;DHT22;30969;51.052;17.056;2023-07-13T08:16:22;22.00;62.80
45233;DHT22;30969;51.052;17.056;2023-07-13T08:21:26;22.10;62.60
45233;DHT22;30969;51.052;17.056;2023-07-13T08:26:30;22.20;62.20
45233;DHT22;30969;51.052;17.056;2023-07-13T08:31:35;22.30;62.10
45233;DHT22;30969;51.052;17.056;2023-07-13T08:36:39;22.30;62.60
45233;DHT22;30969;51.052;17.056;2023-07-13T08:41:43;22.40;62.60
45233;DHT22;30969;51.052;17.056;2023-07-13T08:46:49;22.40;62.30
45233;DHT22;30969;51.052;17.056;2023-07-13T08:51:55;22.40;62.20
45233;DHT22;30969;51.052;17.056;2023-07-13T08:57:02;22.50;62.10
45233;DHT22;30969;51.052;17.056;2023-07-13T09:02:14;22.50;62.20
45233;DHT22;30969;51.052;17.056;2023-07-13T09:07:22;22.60;62.10
45233;DHT22;30969;51.052;17.056;2023-07-13T09:12:31;22.70;62.00
45233;DHT22;30969;51.052;17.056;2023-07-13T09:17:40;22.70;61.70
45233;DHT22;30969;51.052;17.056;2023-07-13T09:22:44;22.80;61.60
45233;DHT22;30969;51.052;17.056;2023-07-13T09:27:49;22.80;61.40
45233;DHT22;30969;51.052;17.056;2023-07-13T09:32:55;22.90;61.30
45233;DHT22;30969;51.052;17.056;2023-07-13T09:38:03;22.90;61.20
45233;DHT22;30969;51.052;17.056;2023-07-13T09:43:08;23.00;61.10
45233;DHT22;30969;51.052;17.056;2023-07-13T09:48:16;23.00;61.00
45233;DHT22;30969;51.052;17.056;2023-07-13T09:53:20;23.10;60.90
45233;DHT22;30969;51.052;17.056;2023-07-13T09:58:26;23.00;60.80
45233;DHT22;30969;51.052;17.056;2023-07-13T10:03:35;23.10;60.90
45233;DHT22;30969;51.052;17.056;2023-07-13T10:08:40;23.10;60.70
45233;DHT22;30969;51.052;17.056;2023-07-13T10:13:45;23.10;60.80
45233;DHT22;30969;51.052;17.056;2023-07-13T10:18:55;23.10;60.60
45233;DHT22;30969;51.052;17.056;2023-07-13T10:24:00;23.20;60.30
45233;DHT22;30969;51.052;17.056;2023-07-13T10:29:08;23.40;60.40
45233;DHT22;30969;51.052;17.056;2023-07-13T10:34:14;23.40;60.00
45233;DHT22;30969;51.052;17.056;2023-07-13T10:39:18;23.60;59.60
45233;DHT22;30969;51.052;17.056;2023-07-13T10:44:23;23.70;59.40
45233;DHT22;30969;51.052;17.056;2023-07-13T10:49:30;23.90;59.20
45233;DHT22;30969;51.052;17.056;2023-07-13T10:54:34;24.00;58.60
45233;DHT22;30969;51.052;17.056;2023-07-13T10:59:39;24.10;58.20
45233;DHT22;30969;51.052;17.056;2023-07-13T11:04:45;24.30;57.70
45233;DHT22;30969;51.052;17.056;2023-07-13T11:09:50;24.40;57.20
45233;DHT22;30969;51.052;17.056;2023-07-13T11:15:01;24.60;55.90
45233;DHT22;30969;51.052;17.056;2023-07-13T11:20:19;24.60;54.60
45233;DHT22;30969;51.052;17.056;2023-07-13T11:25:27;24.80;54.50
45233;DHT22;30969;51.052;17.056;2023-07-13T11:30:32;24.90;54.20
45233;DHT22;30969;51.052;17.056;2023-07-13T11:35:41;25.00;54.90
45233;DHT22;30969;51.052;17.056;2023-07-13T11:40:47;25.10;53.50
45233;DHT22;30969;51.052;17.056;2023-07-13T11:45:53;25.10;53.00
45233;DHT22;30969;51.052;17.056;2023-07-13T11:51:00;25.20;52.60
45233;DHT22;30969;51.052;17.056;2023-07-13T11:56:05;25.20;52.60
45233;DHT22;30969;51.052;17.056;2023-07-13T12:01:10;25.30;51.80
45233;DHT22;30969;51.052;17.056;2023-07-13T12:06:25;25.40;51.80
45233;DHT22;30969;51.052;17.056;2023-07-13T12:11:30;25.40;51.70
45233;DHT22;30969;51.052;17.056;2023-07-13T12:16:34;25.40;51.30
45233;DHT22;30969;51.052;17.056;2023-07-13T12:21:41;25.60;51.10
45233;DHT22;30969;51.052;17.056;2023-07-13T12:26:50;25.60;50.60
45233;DHT22;30969;51.052;17.056;2023-07-13T12:31:54;25.70;50.70
45233;DHT22;30969;51.052;17.056;2023-07-13T12:37:00;25.80;50.60
45233;DHT22;30969;51.052;17.056;2023-07-13T12:42:16;25.90;50.30
45233;DHT22;30969;51.052;17.056;2023-07-13T12:47:21;26.10;50.20
45233;DHT22;30969;51.052;17.056;2023-07-13T12:52:29;26.20;47.90
45233;DHT22;30969;51.052;17.056;2023-07-13T12:57:37;26.30;47.40
45233;DHT22;30969;51.052;17.056;2023-07-13T13:02:42;26.40;46.60
45233;DHT22;30969;51.052;17.056;2023-07-13T13:07:47;26.50;45.90
45233;DHT22;30969;51.052;17.056;2023-07-13T13:12:50;26.60;46.10
45233;DHT22;30969;51.052;17.056;2023-07-13T13:17:54;26.70;46.10
45233;DHT22;30969;51.052;17.056;2023-07-13T13:23:01;26.80;45.30
45233;DHT22;30969;51.052;17.056;2023-07-13T13:28:05;26.90;44.60
45233;DHT22;30969;51.052;17.056;2023-07-13T13:33:09;27.00;44.20
45233;DHT22;30969;51.052;17.056;2023-07-13T13:38:17;27.20;43.10
45233;DHT22;30969;51.052;17.056;2023-07-13T13:43:21;27.50;44.00
45233;DHT22;30969;51.052;17.056;2023-07-13T13:48:29;27.80;43.40
45233;DHT22;30969;51.052;17.056;2023-07-13T13:53:35;28.20;43.10
45233;DHT22;30969;51.052;17.056;2023-07-13T13:58:38;28.50;41.10
45233;DHT22;30969;51.052;17.056;2023-07-13T14:03:42;28.90;40.70
45233;DHT22;30969;51.052;17.056;2023-07-13T14:08:47;29.20;40.50
45233;DHT22;30969;51.052;17.056;2023-07-13T14:13:52;29.80;40.60
45233;DHT22;30969;51.052;17.056;2023-07-13T14:18:56;30.30;40.00
45233;DHT22;30969;51.052;17.056;2023-07-13T14:24:04;30.90;39.70
45233;DHT22;30969;51.052;17.056;2023-07-13T14:29:11;31.40;39.30
45233;DHT22;30969;51.052;17.056;2023-07-13T14:34:15;31.90;38.60
45233;DHT22;30969;51.052;17.056;2023-07-13T14:39:21;32.10;37.80
45233;DHT22;30969;51.052;17.056;2023-07-13T14:44:25;32.40;34.90
45233;DHT22;30969;51.052;17.056;2023-07-13T14:49:31;32.70;34.20
45233;DHT22;30969;51.052;17.056;2023-07-13T14:54:37;33.10;34.00
45233;DHT22;30969;51.052;17.056;2023-07-13T14:59:42;33.60;35.00
45233;DHT22;30969;51.052;17.056;2023-07-13T15:04:47;34.10;34.00
45233;DHT22;30969;51.052;17.056;2023-07-13T15:09:53;34.50;32.00
45233;DHT22;30969;51.052;17.056;2023-07-13T15:14:56;34.50;31.20
45233;DHT22;30969;51.052;17.056;2023-07-13T15:19:59;34.60;31.00
45233;DHT22;30969;51.052;17.056;2023-07-13T15:25:07;34.90;30.60
45233;DHT22;30969;51.052;17.056;2023-07-13T15:30:14;35.30;29.70
45233;DHT22;30969;51.052;17.056;2023-07-13T15:35:19;35.70;29.60
45233;DHT22;30969;51.052;17.056;2023-07-13T15:40:24;35.90;29.40
45233;DHT22;30969;51.052;17.056;2023-07-13T15:45:27;36.00;28.50
45233;DHT22;30969;51.052;17.056;2023-07-13T15:50:31;36.10;28.30
45233;DHT22;30969;51.052;17.056;2023-07-13T15:55:46;36.30;28.40
45233;DHT22;30969;51.052;17.056;2023-07-13T16:00:49;37.10;27.30
45233;DHT22;30969;51.052;17.056;2023-07-13T16:05:54;37.60;27.10
45233;DHT22;30969;51.052;17.056;2023-07-13T16:10:58;38.00;24.90
45233;DHT22;30969;51.052;17.056;2023-07-13T16:16:04;38.20;23.70
45233;DHT22;30969;51.052;17.056;2023-07-13T16:21:12;38.40;24.10
45233;DHT22;30969;51.052;17.056;2023-07-13T16:26:24;38.50;24.10
45233;DHT22;30969;51.052;17.056;2023-07-13T16:31:32;38.30;24.50
45233;DHT22;30969;51.052;17.056;2023-07-13T16:36:35;37.70;25.10
45233;DHT22;30969;51.052;17.056;2023-07-13T16:41:43;37.30;25.40
45233;DHT22;30969;51.052;17.056;2023-07-13T16:46:48;37.00;25.30
45233;DHT22;30969;51.052;17.056;2023-07-13T16:51:52;36.60;25.10
45233;DHT22;30969;51.052;17.056;2023-07-13T16:56:59;36.00;25.70
45233;DHT22;30969;51.052;17.056;2023-07-13T17:07:25;34.60;26.80
45233;DHT22;30969;51.052;17.056;2023-07-13T17:12:32;33.90;27.40
45233;DHT22;30969;51.052;17.056;2023-07-13T17:17:36;33.30;28.10
45233;DHT22;30969;51.052;17.056;2023-07-13T17:22:46;32.80;28.70
45233;DHT22;30969;51.052;17.056;2023-07-13T17:27:52;32.30;29.50
45233;DHT22;30969;51.052;17.056;2023-07-13T17:32:55;31.90;30.10
45233;DHT22;30969;51.052;17.056;2023-07-13T17:38:00;31.60;30.80
45233;DHT22;30969;51.052;17.056;2023-07-13T17:43:05;31.20;31.70
45233;DHT22;30969;51.052;17.056;2023-07-13T17:48:09;30.90;32.40
45233;DHT22;30969;51.052;17.056;2023-07-13T17:53:14;30.60;33.00
45233;DHT22;30969;51.052;17.056;2023-07-13T17:58:19;30.50;33.70
45233;DHT22;30969;51.052;17.056;2023-07-13T18:03:24;30.30;34.00
45233;DHT22;30969;51.052;17.056;2023-07-13T18:08:35;30.20;34.40
45233;DHT22;30969;51.052;17.056;2023-07-13T18:13:40;30.00;34.70
45233;DHT22;30969;51.052;17.056;2023-07-13T18:18:43;29.80;35.00
45233;DHT22;30969;51.052;17.056;2023-07-13T18:23:47;29.60;35.30
45233;DHT22;30969;51.052;17.056;2023-07-13T18:28:52;29.30;35.70
45233;DHT22;30969;51.052;17.056;2023-07-13T18:33:56;29.10;36.20
45233;DHT22;30969;51.052;17.056;2023-07-13T18:39:00;28.90;36.50
45233;DHT22;30969;51.052;17.056;2023-07-13T18:44:06;28.70;37.00
45233;DHT22;30969;51.052;17.056;2023-07-13T18:49:10;28.50;37.20
45233;DHT22;30969;51.052;17.056;2023-07-13T18:54:15;28.40;37.60
45233;DHT22;30969;51.052;17.056;2023-07-13T18:59:20;28.20;37.70
45233;DHT22;30969;51.052;17.056;2023-07-13T19:04:28;28.10;38.10
45233;DHT22;30969;51.052;17.056;2023-07-13T19:09:32;28.00;39.40
45233;DHT22;30969;51.052;17.056;2023-07-13T19:14:38;27.70;39.00
45233;DHT22;30969;51.052;17.056;2023-07-13T19:19:43;27.20;40.00
45233;DHT22;30969;51.052;17.056;2023-07-13T19:24:47;26.90;40.70
45233;DHT22;30969;51.052;17.056;2023-07-13T19:29:52;26.60;41.10
45233;DHT22;30969;51.052;17.056;2023-07-13T19:34:56;26.20;42.30
45233;DHT22;30969;51.052;17.056;2023-07-13T19:39:59;26.00;42.50
45233;DHT22;30969;51.052;17.056;2023-07-13T19:45:07;25.90;43.20
45233;DHT22;30969;51.052;17.056;2023-07-13T19:50:17;25.80;43.20
45233;DHT22;30969;51.052;17.056;2023-07-13T19:55:24;25.70;43.70
45233;DHT22;30969;51.052;17.056;2023-07-13T20:00:30;25.60;44.10
45233;DHT22;30969;51.052;17.056;2023-07-13T20:05:36;25.40;44.10
45233;DHT22;30969;51.052;17.056;2023-07-13T20:10:40;25.40;44.10
45233;DHT22;30969;51.052;17.056;2023-07-13T20:15:45;25.30;44.40
45233;DHT22;30969;51.052;17.056;2023-07-13T20:20:48;25.20;45.00
45233;DHT22;30969;51.052;17.056;2023-07-13T20:25:52;25.10;44.60
45233;DHT22;30969;51.052;17.056;2023-07-13T20:30:57;25.10;44.30
45233;DHT22;30969;51.052;17.056;2023-07-13T20:36:04;25.00;44.00
45233;DHT22;30969;51.052;17.056;2023-07-13T20:41:09;25.00;44.40
45233;DHT22;30969;51.052;17.056;2023-07-13T20:46:17;25.00;44.90
45233;DHT22;30969;51.052;17.056;2023-07-13T20:51:20;24.90;45.30
45233;DHT22;30969;51.052;17.056;2023-07-13T20:56:25;24.80;45.30
45233;DHT22;30969;51.052;17.056;2023-07-13T21:01:31;24.70;45.10
45233;DHT22;30969;51.052;17.056;2023-07-13T21:06:36;24.70;45.40
45233;DHT22;30969;51.052;17.056;2023-07-13T21:11:39;24.60;45.30
45233;DHT22;30969;51.052;17.056;2023-07-13T21:16:44;24.50;45.50
45233;DHT22;30969;51.052;17.056;2023-07-13T21:21:48;24.40;46.00
45233;DHT22;30969;51.052;17.056;2023-07-13T21:26:54;24.20;46.70
45233;DHT22;30969;51.052;17.056;2023-07-13T21:32:01;24.10;47.10
45233;DHT22;30969;51.052;17.056;2023-07-13T21:37:08;24.00;47.40
45233;DHT22;30969;51.052;17.056;2023-07-13T21:42:11;23.90;47.60
45233;DHT22;30969;51.052;17.056;2023-07-13T21:47:17;23.80;47.60
45233;DHT22;30969;51.052;17.056;2023-07-13T21:52:20;23.70;48.20
45233;DHT22;30969;51.052;17.056;2023-07-13T21:57:23;23.60;48.50
45233;DHT22;30969;51.052;17.056;2023-07-13T22:02:31;23.50;48.50
45233;DHT22;30969;51.052;17.056;2023-07-13T22:07:35;23.50;48.70
45233;DHT22;30969;51.052;17.056;2023-07-13T22:12:39;23.40;48.80
45233;DHT22;30969;51.052;17.056;2023-07-13T22:17:45;23.30;49.00
45233;DHT22;30969;51.052;17.056;2023-07-13T22:22:49;23.30;49.20
45233;DHT22;30969;51.052;17.056;2023-07-13T22:27:52;23.20;49.90
45233;DHT22;30969;51.052;17.056;2023-07-13T22:32:57;23.00;50.10
45233;DHT22;30969;51.052;17.056;2023-07-13T22:38:01;22.90;50.40
45233;DHT22;30969;51.052;17.056;2023-07-13T22:43:08;22.90;50.40
45233;DHT22;30969;51.052;17.056;2023-07-13T22:48:16;22.80;50.80
45233;DHT22;30969;51.052;17.056;2023-07-13T22:53:20;22.80;51.30
45233;DHT22;30969;51.052;17.056;2023-07-13T22:58:26;22.70;52.20
45233;DHT22;30969;51.052;17.056;2023-07-13T23:03:32;22.60;51.90
45233;DHT22;30969;51.052;17.056;2023-07-13T23:08:39;22.50;51.80
45233;DHT22;30969;51.052;17.056;2023-07-13T23:13:43;22.50;51.80
45233;DHT22;30969;51.052;17.056;2023-07-13T23:18:50;22.50;51.50
45233;DHT22;30969;51.052;17.056;2023-07-13T23:23:54;22.40;51.00
45233;DHT22;30969;51.052;17.056;2023-07-13T23:28:59;22.40;51.00
45233;DHT22;30969;51.052;17.056;2023-07-13T23:34:12;22.40;50.90
45233;DHT22;30969;51.052;17.056;2023-07-13T23:39:16;22.40;51.00
45233;DHT22;30969;51.052;17.056;2023-07-13T23:44:20;22.30;50.70
45233;DHT22;30969;51.052;17.056;2023-07-13T23:49:25;22.30;50.40
45233;DHT22;30969;51.052;17.056;2023-07-13T23:54:31;22.30;50.40
45233;DHT22;30969;51.052;17.056;2023-07-13T23:59:37;22.30;50.70
